• Join FlightAware (Why Join?)
  • Login
  • US Flag 
07:05PM EST


 

Airport Tracker/Info


-or-


 

Live Flight TrackerFlight Track Log ✈ AWI3695 ✈ 28-Apr-2013 ✈ KDCA - KCLT

Flight Track Log - Related Links

Times and Time Zones

All times are in EDT time to prevent confusion due to time zone crossing. See the AWI3695 flight status page for this flight to view local times or setup timezone preferences in your user account.

Time Position Orientation Groundspeed Altitude Reporting Facility
EDT Latitude Longitude Course Direction KTS MPH feet Rate Location/Type
05:51AM 38.8333 -77.0333 225° Southwest 148 170 1,700  Level Potomac TRACON
05:52AM 38.7833 -77.0333 180° South 200 230 4,300 2,820 Climbing Potomac TRACON
05:53AM 38.6382 -77.2654 221° Southwest  Level FlightAware Approximate
05:54AM 38.5660 -77.3467 221° Southwest  Level FlightAware Approximate
05:54AM 38.6739 -77.1500 220° Southwest 242 278 10,300  Level Washington Center
05:55AM 38.4962 -77.4312 225° Southwest  Level FlightAware Approximate
05:55AM 38.6122 -77.2417 229° Southwest 279 321 12,300  Level Washington Center
05:56AM 38.4283 -77.5184 225° Southwest  Level FlightAware Approximate
05:56AM 38.5506 -77.3358 230° Southwest 314 361 14,500  Level Washington Center
05:57AM 38.4886 -77.4325 231° Southwest 343 395 16,500 1,800 Climbing Washington Center
05:58AM 38.4225 -77.5317 230° Southwest 364 419 18,100 1,560 Climbing Washington Center
05:59AM 38.3561 -77.6331 230° Southwest 374 430 19,700 1,380 Climbing Washington Center
06:00AM 38.2875 -77.7369 230° Southwest 379 436 20,900 960 Climbing Washington Center
06:01AM 38.2189 -77.8433 231° Southwest 385 443 21,700 1,020 Climbing Washington Center
06:02AM 38.1522 -77.9469 231° Southwest 385 443 23,100 1,140 Climbing Washington Center
06:03AM 38.0814 -78.0531 230° Southwest 390 449 24,000 840 Climbing Washington Center
06:04AM 38.0231 -78.1408 230° Southwest 395 455 24,800 960 Climbing Washington Center
06:05AM 37.9411 -78.2644 230° Southwest 395 455 26,000 1,020 Climbing Washington Center
06:06AM 37.8744 -78.3594 228° Southwest 396 456 26,900 900 Climbing Washington Center
06:07AM 37.8031 -78.4644 229° Southwest 401 461 27,900 960 Climbing Washington Center
06:08AM 37.7297 -78.5694 229° Southwest 401 461 28,900 960 Climbing Washington Center
06:09AM 37.6561 -78.6714 228° Southwest 401 461 29,900 1,080 Climbing Washington Center
06:10AM 37.5761 -78.7833 228° Southwest 401 461 31,100 1,020 Climbing Washington Center
06:11AM 37.5067 -78.8825 229° Southwest 401 461 32,000 420 Climbing Washington Center
06:12AM 37.4306 -78.9892 228° Southwest 401 461 32,000  Level Washington Center
06:13AM 37.3589 -79.0906 228° Southwest 401 461 32,000  Level Washington Center
06:14AM 37.2850 -79.1917 227° Southwest 401 461 32,000  Level Washington Center
06:15AM 37.2028 -79.2842 222° Southwest 401 461 32,000  Level Washington Center
06:16AM 37.1153 -79.3531 212° Southwest 401 461 32,000  Level Washington Center
06:17AM 37.0189 -79.4314 213° Southwest 413 475 32,000  Level Washington Center
06:18AM 36.9244 -79.5097 214° Southwest 419 482 32,000  Level Washington Center
06:19AM 36.8300 -79.5881 214° Southwest 419 482 32,000 -960 Level Washington Center
06:20AM 36.7228 -79.6733 213° Southwest 426 490 30,200 -1,920 Descending Washington Center
06:22AM 36.5628 -79.8025 213° Southwest 377 434 26,400 -2,100 Descending Atlanta Center
06:23AM 36.4819 -79.8714 214° Southwest 365 420 24,200 -2,100 Descending Atlanta Center
06:24AM 36.3944 -79.9431 213° Southwest 354 407 22,200 -1,140 Descending Atlanta Center
06:25AM 36.3172 -80.0008 211° Southwest 342 394 22,000 -300 Descending Atlanta Center
06:26AM 36.2442 -80.0664 216° Southwest 337 388 21,600 -1,320 Descending Atlanta Center
06:27AM 36.1711 -80.1267 214° Southwest 331 381 19,400 -2,040 Descending Atlanta Center
06:28AM 36.1103 -80.1836 217° Southwest 325 374 17,600 -1,200 Descending Atlanta Center
06:29AM 36.0372 -80.2436 214° Southwest 320 368 17,000 -300 Descending Atlanta Center
06:30AM 35.9681 -80.3006 214° Southwest 320 368 17,000  Level Atlanta Center
06:31AM 35.8914 -80.2503 152° Southeast 284 327 17,000  Level Atlanta Center
06:31AM 35.8714 -80.2128 123° Southeast 351 404 17,000 -840 Level Atlanta Center
06:32AM 35.8500 -80.1983 151° Southeast 347 399 16,500 -1,920 Descending Atlanta Center
06:32AM 35.8128 -80.2028 186° South 283 326 15,700 -1,920 Descending Atlanta Center
06:33AM 35.7850 -80.2553 237° Southwest 292 336 14,600 -1,800 Descending Atlanta Center
06:33AM 35.7800 -80.2914 260° West 217 250 13,900 -1,620 Descending Atlanta Center
06:34AM 35.7944 -80.3522 286° West 272 313 13,000 -1,020 Descending Atlanta Center
06:34AM 35.7972 -80.3828 276° West 228 262 12,900 -1,380 Descending Atlanta Center
06:35AM 35.7992 -80.4442 272° West 271 312 11,600 -1,740 Descending Atlanta Center
06:35AM 35.7767 -80.4631 214° Southwest 253 291 11,200 -600 Descending Atlanta Center
06:36AM 35.7358 -80.4928 211° Southwest 272 313 11,000 -240 Descending Atlanta Center
06:36AM 35.7092 -80.5044 200° South 260 299 11,000 -1,140 Level Atlanta Center
06:37AM 35.6661 -80.5292 205° Southwest 278 320 9,900 -1,440 Descending Atlanta Center
06:37AM 35.6475 -80.5403 206° Southwest 272 313 9,600 -1,200 Descending Atlanta Center
06:38AM 35.5942 -80.5731 207° Southwest 215 247 8,500 -1,080 Descending Atlanta Center
06:39AM 35.5344 -80.6011 201° Southwest 226 260 7,500 -960 Descending Atlanta Center
06:40AM 35.4850 -80.6261 202° Southwest 219 252 6,700 -840 Descending Atlanta Center
06:41AM 35.4319 -80.6617 209° Southwest 218 251 6,000 -480 Descending Atlanta Center
06:42AM 35.3892 -80.7042 219° Southwest 215 247 5,800 -780 Descending Atlanta Center
06:43AM 35.3511 -80.7564 228° Southwest 204 235 4,500 -1,080 Descending Atlanta Center
06:44AM 35.3128 -80.8089 228° Southwest 199 229 3,500 -1,080 Descending Atlanta Center
06:45AM 35.2764 -80.8586 228° Southwest 186 214 2,400 -900 Descending Atlanta Center
06:46AM 35.2483 -80.9006 231° Southwest 136 157 1,600 -720 Descending Atlanta Center